Huvudsida
METAR-TAF:

METAR-TAF

Flygplatser :

Heliport

Værøy, Norge

latitud: 67-39-16N, longitud: 12-43-37E, höjd: 5 m

Aktuellt väderrapport

Denna rapport gjordes för 7 timmar och 20 minuter sedan, klockan 14:50 UTC
Vind 22 kt från ost
Temperatur 0°C
Fuktighet 69%
Tryck 1003 hPa
Sikt 10 km eller mer
Spridda moln på en höjd av 4200 ft

METAR: ENVR 261450Z 09022KT 9999 SCT042 M00/M05 Q1003

Tid: 23:10 (22:10 UTC)


TAF: saknas

Aktuella väderrapporter och prognoser från 4000 flygplatser (METAR- och TAF-rapporter).

De tillgängliga stationerna syns som gula och röda prickar på kartan.

För musen över prickarna för att se namnen på stationerna.

Klicka sedan för att få väderrapporter och prognoser.

För att ändra kartan: Klicka på de gröna knapparna med ett svart kors på för att zooma in; den gröna knappen med ett streck på för att zooma ut; eller på de gröna pilarna för angränsande kartor.


METAR-TAF: